createdAt,value
2022-08-07T00:00:25.405Z,102543.81
2022-08-07T00:02:53.697Z,102543.91
2022-08-07T00:05:20.768Z,102538.66
2022-08-07T00:07:59.730Z,102546.63
2022-08-07T00:10:31.083Z,102546.66
2022-08-07T00:13:23.562Z,102542.41
2022-08-07T00:15:51.844Z,102543.31
2022-08-07T00:18:24.351Z,102540.69
2022-08-07T00:20:54.682Z,102533.72
2022-08-07T00:23:21.660Z,102539.09
2022-08-07T00:25:58.922Z,102526.84
2022-08-07T00:28:33.673Z,102530.47
2022-08-07T00:31:12.438Z,102525.28
2022-08-07T00:33:40.345Z,102526.22
2022-08-07T00:36:08.472Z,102527.22
2022-08-07T00:38:36.744Z,102522.91
2022-08-07T00:41:09.910Z,102523.88
2022-08-07T00:44:01.181Z,102520.41
2022-08-07T00:46:30.005Z,102524.84
2022-08-07T00:49:02.178Z,102525.72
2022-08-07T00:51:57.403Z,102525.72
2022-08-07T00:54:16.731Z,102524.00
2022-08-07T00:56:49.555Z,102519.66
2022-08-07T00:59:17.334Z,102520.59
2022-08-07T01:01:48.399Z,102518.84
2022-08-07T01:04:21.682Z,102510.94
2022-08-07T01:06:51.464Z,102517.13
2022-08-07T01:10:03.860Z,102524.19
2022-08-07T01:12:29.057Z,102517.19
2022-08-07T01:14:57.130Z,102526.94
2022-08-07T01:17:30.164Z,102519.97
2022-08-07T01:20:08.181Z,102520.94
2022-08-07T01:22:37.855Z,102517.44
2022-08-07T01:25:53.997Z,102516.66
2022-08-07T01:28:03.621Z,102517.59
2022-08-07T01:30:32.290Z,102518.53
2022-08-07T01:32:59.319Z,102511.56
2022-08-07T01:35:36.871Z,102511.63
2022-08-07T01:38:24.846Z,102509.84
2022-08-07T01:41:02.598Z,102508.22
2022-08-07T01:43:38.048Z,102512.69
2022-08-07T01:46:08.386Z,102506.53
2022-08-07T01:48:46.577Z,102513.66
2022-08-07T01:52:02.706Z,102510.19
2022-08-07T01:54:19.267Z,102514.66
2022-08-07T01:57:08.279Z,102512.94
2022-08-07T01:59:43.762Z,102510.38
2022-08-07T02:03:12.355Z,102504.31
2022-08-07T02:05:43.394Z,102504.31
2022-08-07T02:08:20.587Z,102503.50
2022-08-07T02:10:55.275Z,102509.72
2022-08-07T02:13:57.218Z,102510.69
2022-08-07T02:16:19.911Z,102508.97
2022-08-07T02:18:55.964Z,102509.03
2022-08-07T02:21:24.930Z,102506.50
2022-08-07T02:23:53.257Z,102502.16
2022-08-07T02:26:33.885Z,102494.31
2022-08-07T02:29:07.529Z,102496.97
2022-08-07T02:31:41.926Z,102500.56
2022-08-07T02:34:11.181Z,102494.41
2022-08-07T02:36:49.488Z,102489.13
2022-08-07T02:39:42.431Z,102497.09
2022-08-07T02:42:10.334Z,102490.03
2022-08-07T02:44:48.130Z,102493.59
2022-08-07T02:47:19.747Z,102486.63
2022-08-07T02:49:58.701Z,102486.69
2022-08-07T02:52:34.361Z,102489.41
2022-08-07T02:55:41.855Z,102495.63
2022-08-07T02:58:10.398Z,102489.44
2022-08-07T03:00:41.631Z,102493.00
2022-08-07T03:03:21.159Z,102488.63
2022-08-07T03:05:53.836Z,102483.41
2022-08-07T03:08:26.820Z,102480.78
2022-08-07T03:10:58.152Z,102485.22
2022-08-07T03:13:38.746Z,102495.84
2022-08-07T03:16:16.779Z,102482.75
2022-08-07T03:18:50.178Z,102480.19
2022-08-07T03:21:19.078Z,102481.94
2022-08-07T03:24:18.452Z,102480.25
2022-08-07T03:26:36.007Z,102474.06
2022-08-07T03:29:15.184Z,102477.56
2022-08-07T03:31:49.839Z,102476.75
2022-08-07T03:34:22.134Z,102469.69
2022-08-07T03:36:53.638Z,102481.13
2022-08-07T03:39:59.005Z,102475.84
2022-08-07T03:42:11.825Z,102474.97
2022-08-07T03:44:39.960Z,102477.66
2022-08-07T03:47:13.044Z,102478.56
2022-08-07T03:49:40.558Z,102477.66
2022-08-07T03:52:22.373Z,102478.56
2022-08-07T03:54:55.275Z,102482.94
2022-08-07T03:58:33.677Z,102485.63
2022-08-07T04:00:14.810Z,102479.44
2022-08-07T04:02:49.366Z,102481.25
2022-08-07T04:05:39.709Z,102480.38
2022-08-07T04:08:15.989Z,102489.16
2022-08-07T04:10:54.260Z,102495.34
2022-08-07T04:14:10.970Z,102501.53
2022-08-07T04:16:31.472Z,102495.44
2022-08-07T04:19:04.307Z,102498.06
2022-08-07T04:21:39.652Z,102498.13
2022-08-07T04:24:34.308Z,102502.53
2022-08-07T04:27:25.442Z,102511.34
2022-08-07T04:30:02.261Z,102501.66
2022-08-07T04:32:44.942Z,102504.31
2022-08-07T04:35:16.346Z,102500.78
2022-08-07T04:38:04.655Z,102507.81
2022-08-07T04:40:32.705Z,102513.00
2022-08-07T04:43:01.964Z,102513.88
2022-08-07T04:46:00.931Z,102513.00
2022-08-07T04:48:59.326Z,102509.44
2022-08-07T04:51:32.629Z,102519.06
2022-08-07T04:54:22.656Z,102523.50
2022-08-07T04:58:10.520Z,102518.19
2022-08-07T05:00:11.430Z,102522.47
2022-08-07T05:03:31.163Z,102524.25
2022-08-07T05:06:19.619Z,102529.41
2022-08-07T05:09:02.183Z,102521.53
2022-08-07T05:11:57.578Z,102528.50
2022-08-07T05:14:54.958Z,102527.53
2022-08-07T05:17:52.577Z,102528.38
2022-08-07T05:20:24.948Z,102534.41
2022-08-07T05:22:57.975Z,102532.56
2022-08-07T05:25:54.477Z,102528.06
2022-08-07T05:28:22.656Z,102533.16
2022-08-07T05:30:56.788Z,102528.66
2022-08-07T05:33:28.313Z,102525.00
2022-08-07T05:35:56.171Z,102527.56
2022-08-07T05:39:00.263Z,102530.94
2022-08-07T05:41:15.871Z,102536.94
2022-08-07T05:44:08.173Z,102541.22
2022-08-07T05:46:38.107Z,102534.84
2022-08-07T05:49:11.790Z,102528.53
2022-08-07T05:51:43.499Z,102533.00
2022-08-07T05:54:31.355Z,102532.09
2022-08-07T05:57:04.453Z,102525.84
2022-08-07T05:59:46.614Z,102526.66
2022-08-07T06:02:29.085Z,102522.97
2022-08-07T06:05:03.470Z,102533.50
2022-08-07T06:08:13.569Z,102519.31
2022-08-07T06:10:18.926Z,102511.19
2022-08-07T06:12:48.540Z,102518.16
2022-08-07T06:15:19.993Z,102521.44
2022-08-07T06:17:53.480Z,102514.28
2022-08-07T06:20:50.057Z,102516.97
2022-08-07T06:23:46.019Z,102518.59
2022-08-07T06:25:59.807Z,102521.06
2022-08-07T06:28:27.198Z,102520.88
2022-08-07T06:30:56.544Z,102516.47
2022-08-07T06:33:26.605Z,102514.66
2022-08-07T06:36:11.821Z,102513.69
2022-08-07T06:38:51.388Z,102521.50
2022-08-07T06:42:02.477Z,102518.75
2022-08-07T06:44:46.006Z,102524.78
2022-08-07T06:47:18.819Z,102521.22
2022-08-07T06:49:52.172Z,102522.16
2022-08-07T06:52:35.590Z,102521.28
2022-08-07T06:55:31.489Z,102528.03
2022-08-07T06:58:04.252Z,102518.16
2022-08-07T07:00:38.141Z,102522.38
2022-08-07T07:03:08.732Z,102531.81
2022-08-07T07:06:02.385Z,102520.13
2022-08-07T07:08:27.283Z,102532.22
2022-08-07T07:10:56.889Z,102528.66
2022-08-07T07:13:56.721Z,102520.88
2022-08-07T07:16:33.829Z,102520.63
2022-08-07T07:19:54.463Z,102525.72
2022-08-07T07:22:05.071Z,102522.84
2022-08-07T07:24:43.127Z,102519.16
2022-08-07T07:27:35.592Z,102514.44
2022-08-07T07:30:20.800Z,102519.44
2022-08-07T07:33:01.404Z,102521.03
2022-08-07T07:35:33.494Z,102527.03
2022-08-07T07:38:04.862Z,102524.28
2022-08-07T07:40:34.421Z,102515.28
2022-08-07T07:43:15.476Z,102514.28
2022-08-07T07:46:38.264Z,102517.44
2022-08-07T07:48:36.506Z,102508.34
2022-08-07T07:51:08.116Z,102505.63
2022-08-07T07:53:50.404Z,102503.78
2022-08-07T07:56:30.435Z,102510.53
2022-08-07T07:59:00.460Z,102502.53
2022-08-07T08:02:03.732Z,102508.53
2022-08-07T08:04:18.380Z,102501.41
2022-08-07T08:06:52.273Z,102507.41
2022-08-07T08:09:23.486Z,102503.59
2022-08-07T08:12:02.886Z,102500.81
2022-08-07T08:14:36.379Z,102494.53
2022-08-07T08:17:41.194Z,102493.25
2022-08-07T08:20:17.643Z,102485.00
2022-08-07T08:23:08.181Z,102480.28
2022-08-07T08:25:56.569Z,102486.28
2022-08-07T08:28:37.901Z,102482.72
2022-08-07T08:31:15.626Z,102480.75
2022-08-07T08:33:49.750Z,102478.84
2022-08-07T08:36:29.641Z,102482.28
2022-08-07T08:38:59.860Z,102474.91
2022-08-07T08:41:57.919Z,102481.59
2022-08-07T08:44:44.262Z,102477.88
2022-08-07T08:47:34.389Z,102474.44
2022-08-07T08:50:35.285Z,102469.66
2022-08-07T08:53:19.693Z,102476.44
2022-08-07T08:56:01.295Z,102468.97
2022-08-07T08:58:59.754Z,102470.06
2022-08-07T09:01:58.457Z,102465.91
2022-08-07T09:04:44.523Z,102459.94
2022-08-07T09:07:23.224Z,102457.75
2022-08-07T09:10:14.461Z,102462.13
2022-08-07T09:12:53.354Z,102462.00
2022-08-07T09:16:25.229Z,102462.13
2022-08-07T09:19:03.462Z,102458.41
2022-08-07T09:22:10.294Z,102458.97
2022-08-07T09:24:59.417Z,102457.91
2022-08-07T09:27:59.462Z,102452.38
2022-08-07T09:30:35.014Z,102459.91
2022-08-07T09:33:16.558Z,102453.22
2022-08-07T09:36:11.743Z,102455.47
2022-08-07T09:38:57.750Z,102450.88
2022-08-07T09:42:03.023Z,102463.09
2022-08-07T09:47:26.311Z,102452.00
2022-08-07T09:48:08.810Z,102458.13
2022-08-07T09:50:55.864Z,102453.25
2022-08-07T09:53:26.039Z,102436.78
2022-08-07T09:56:46.991Z,102439.31
2022-08-07T09:59:44.670Z,102438.50
2022-08-07T10:02:24.563Z,102428.09
2022-08-07T10:05:29.721Z,102422.97
2022-08-07T10:08:35.197Z,102428.34
2022-08-07T10:12:00.135Z,102429.97
2022-08-07T10:14:30.483Z,102413.97
2022-08-07T10:17:22.646Z,102410.00
2022-08-07T10:20:31.679Z,102406.09
2022-08-07T10:23:17.073Z,102410.66
2022-08-07T10:26:33.344Z,102412.47
2022-08-07T10:29:34.950Z,102409.66
2022-08-07T10:32:36.812Z,102393.19
2022-08-07T10:35:55.699Z,102394.56
2022-08-07T10:38:35.955Z,102396.53
2022-08-07T10:41:46.605Z,102389.72
2022-08-07T10:44:33.814Z,102385.03
2022-08-07T10:47:18.767Z,102375.69
2022-08-07T10:50:10.762Z,102369.81
2022-08-07T10:52:58.834Z,102376.81
2022-08-07T10:56:02.154Z,102359.03
2022-08-07T10:58:59.433Z,102352.97
2022-08-07T11:01:51.007Z,102343.47
2022-08-07T11:05:00.080Z,102344.09
2022-08-07T11:08:02.682Z,102343.72
2022-08-07T11:10:52.294Z,102337.47
2022-08-07T11:14:42.016Z,102327.88
2022-08-07T11:17:07.389Z,102328.56
2022-08-07T11:20:03.648Z,102326.03
2022-08-07T11:22:49.006Z,102331.13
2022-08-07T11:25:25.663Z,102329.72
2022-08-07T11:28:04.287Z,102315.63
2022-08-07T11:30:42.594Z,102322.81
2022-08-07T11:33:59.393Z,102321.69
2022-08-07T11:36:16.612Z,102325.16
2022-08-07T11:39:19.721Z,102321.22
2022-08-07T11:42:03.327Z,102323.88
2022-08-07T11:44:51.962Z,102322.59
2022-08-07T11:47:56.311Z,102317.75
2022-08-07T11:50:44.238Z,102314.72
2022-08-07T11:54:11.476Z,102320.56
2022-08-07T11:56:59.232Z,102324.06
2022-08-07T12:00:10.084Z,102330.00
2022-08-07T12:02:55.583Z,102324.84
2022-08-07T12:06:01.300Z,102317.34
2022-08-07T12:08:52.627Z,102316.84
2022-08-07T12:11:32.427Z,102320.75
2022-08-07T12:14:08.509Z,102307.44
2022-08-07T12:16:42.434Z,102308.25
2022-08-07T12:20:03.311Z,102302.84
2022-08-07T12:22:55.883Z,102286.06
2022-08-07T12:26:23.344Z,102278.75
2022-08-07T12:29:15.767Z,102258.66
2022-08-07T12:32:03.813Z,102274.44
2022-08-07T12:34:34.479Z,102273.41
2022-08-07T12:37:08.768Z,102270.53
2022-08-07T12:39:50.949Z,102271.47
2022-08-07T12:42:27.189Z,102269.25
2022-08-07T12:44:57.782Z,102265.69
2022-08-07T12:48:13.222Z,102274.88
2022-08-07T12:51:18.819Z,102269.09
2022-08-07T12:54:02.714Z,102268.06
2022-08-07T12:56:51.474Z,102267.28
2022-08-07T12:59:30.497Z,102273.19
2022-08-07T13:02:33.158Z,102273.81
2022-08-07T13:06:04.755Z,102266.69
2022-08-07T13:08:43.671Z,102270.03
2022-08-07T13:12:02.742Z,102272.13
2022-08-07T13:14:58.953Z,102270.75
2022-08-07T13:17:42.718Z,102264.63
2022-08-07T13:20:46.516Z,102265.97
2022-08-07T13:24:01.751Z,102265.94
2022-08-07T13:26:46.430Z,102276.34
2022-08-07T13:29:52.302Z,102265.09
2022-08-07T13:32:32.101Z,102267.81
2022-08-07T13:35:08.410Z,102258.13
2022-08-07T13:37:59.188Z,102253.63
2022-08-07T13:40:46.843Z,102264.13
2022-08-07T13:43:17.218Z,102263.84
2022-08-07T13:46:11.286Z,102256.16
2022-08-07T13:48:51.884Z,102257.72
2022-08-07T13:51:28.180Z,102248.09
2022-08-07T13:54:22.634Z,102248.47
2022-08-07T13:56:59.458Z,102240.63
2022-08-07T13:59:33.166Z,102247.06
2022-08-07T14:02:14.996Z,102240.25
2022-08-07T14:04:54.499Z,102237.69
2022-08-07T14:07:24.402Z,102239.25
2022-08-07T14:10:17.420Z,102240.13
2022-08-07T14:12:58.515Z,102232.28
2022-08-07T14:15:28.319Z,102232.31
2022-08-07T14:18:24.238Z,102234.78
2022-08-07T14:21:08.170Z,102228.06
2022-08-07T14:24:01.855Z,102228.50
2022-08-07T14:26:39.191Z,102218.19
2022-08-07T14:30:06.395Z,102220.84
2022-08-07T14:32:10.159Z,102217.38
2022-08-07T14:34:46.200Z,102218.00
2022-08-07T14:37:16.836Z,102221.31
2022-08-07T14:40:16.469Z,102219.25
2022-08-07T14:42:35.605Z,102214.81
2022-08-07T14:45:25.483Z,102211.97
2022-08-07T14:51:06.078Z,102215.84
2022-08-07T14:56:33.199Z,102209.44
2022-08-07T15:01:58.679Z,102198.63
2022-08-07T15:04:26.139Z,102200.81
2022-08-07T15:06:56.975Z,102203.69
2022-08-07T15:09:57.608Z,102203.50
2022-08-07T15:12:26.173Z,102189.56
2022-08-07T15:15:09.117Z,102195.88
2022-08-07T15:18:02.700Z,102194.09
2022-08-07T15:20:38.568Z,102191.53
2022-08-07T15:25:15.128Z,102195.38
2022-08-07T15:31:57.647Z,102178.22
2022-08-07T15:34:33.644Z,102184.72
2022-08-07T15:37:06.854Z,102187.53
2022-08-07T15:39:56.619Z,102187.31
2022-08-07T15:42:47.845Z,102184.84
2022-08-07T15:45:20.818Z,102180.00
2022-08-07T15:48:13.000Z,102180.38
2022-08-07T15:51:08.091Z,102177.41
2022-08-07T15:53:52.183Z,102175.41
2022-08-07T15:56:24.661Z,102171.53
2022-08-07T15:58:59.350Z,102168.94
2022-08-07T16:01:38.443Z,102173.06
2022-08-07T16:04:15.300Z,102162.94
2022-08-07T16:06:59.236Z,102165.56
2022-08-07T16:09:42.211Z,102159.94
2022-08-07T16:12:39.084Z,102158.38
2022-08-07T16:15:55.209Z,102169.50
2022-08-07T16:18:43.471Z,102153.72
2022-08-07T16:22:19.244Z,102154.03
2022-08-07T16:25:23.063Z,102163.09
2022-08-07T16:29:18.359Z,102153.34
2022-08-07T16:31:57.205Z,102151.44
2022-08-07T16:34:45.356Z,102147.91
2022-08-07T16:38:04.939Z,102152.41
2022-08-07T16:40:34.304Z,102148.22
2022-08-07T16:43:19.117Z,102157.88
2022-08-07T16:50:26.593Z,102164.72
2022-08-07T16:53:55.637Z,102161.19
2022-08-07T16:56:25.871Z,102167.78
2022-08-07T16:59:10.661Z,102160.28
2022-08-07T17:01:56.669Z,102166.94
2022-08-07T17:04:32.516Z,102163.41
2022-08-07T17:07:08.072Z,102159.34
2022-08-07T17:10:08.153Z,102159.34
2022-08-07T17:12:47.491Z,102153.56
2022-08-07T17:15:15.689Z,102156.16
2022-08-07T17:17:48.535Z,102155.84
2022-08-07T17:20:41.265Z,102165.59
2022-08-07T17:23:31.990Z,102170.03
2022-08-07T17:26:24.147Z,102160.69
2022-08-07T17:30:14.721Z,102164.22
2022-08-07T17:32:31.155Z,102164.22
2022-08-07T17:35:50.002Z,102162.69
2022-08-07T17:38:33.414Z,102159.25
2022-08-07T17:42:02.296Z,102162.81
2022-08-07T17:44:33.873Z,102156.34
2022-08-07T17:47:16.922Z,102155.19
2022-08-07T17:49:59.155Z,102157.78
2022-08-07T17:52:31.427Z,102158.34
2022-08-07T17:55:09.244Z,102158.31
2022-08-07T17:58:13.547Z,102150.16
2022-08-07T18:00:59.097Z,102163.06
2022-08-07T18:04:04.537Z,102151.28
2022-08-07T18:06:43.565Z,102155.25
2022-08-07T18:09:18.844Z,102156.66
2022-08-07T18:12:28.591Z,102164.22
2022-08-07T18:15:08.636Z,102165.41
2022-08-07T18:18:46.422Z,102159.66
2022-08-07T18:21:06.522Z,102159.03
2022-08-07T18:23:58.316Z,102161.19
2022-08-07T18:26:38.566Z,102165.09
2022-08-07T18:30:04.208Z,102167.25
2022-08-07T18:32:39.240Z,102176.53
2022-08-07T18:35:21.733Z,102178.53
2022-08-07T18:38:57.602Z,102181.44
2022-08-07T18:41:16.744Z,102190.59
2022-08-07T18:43:48.965Z,102181.88
2022-08-07T18:47:08.568Z,102189.44
2022-08-07T18:50:30.760Z,102182.50
2022-08-07T18:52:53.271Z,102186.25
2022-08-07T18:55:57.325Z,102194.63
2022-08-07T18:59:01.626Z,102194.94
2022-08-07T19:02:18.291Z,102203.13
2022-08-07T19:04:56.228Z,102205.31
2022-08-07T19:07:59.296Z,102203.72
2022-08-07T19:10:49.429Z,102208.38
2022-08-07T19:13:37.761Z,102214.97
2022-08-07T19:17:01.473Z,102215.22
2022-08-07T19:19:41.169Z,102213.75
2022-08-07T19:22:18.433Z,102219.41
2022-08-07T19:24:58.506Z,102224.09
2022-08-07T19:28:58.533Z,102222.69
2022-08-07T19:31:05.817Z,102216.75
2022-08-07T19:33:15.606Z,102220.56
2022-08-07T19:35:53.599Z,102226.28
2022-08-07T19:38:21.541Z,102221.22
2022-08-07T19:40:51.843Z,102230.25
2022-08-07T19:43:49.060Z,102226.09
2022-08-07T19:46:10.927Z,102231.66
2022-08-07T19:48:42.133Z,102234.63
2022-08-07T19:51:19.366Z,102234.91
2022-08-07T19:54:35.609Z,102236.88
2022-08-07T19:57:52.006Z,102237.91
2022-08-07T19:59:39.917Z,102238.19
2022-08-07T20:02:19.739Z,102239.34
2022-08-07T20:04:57.017Z,102242.25
2022-08-07T20:07:47.135Z,102247.78
2022-08-07T20:10:36.615Z,102249.94
2022-08-07T20:13:22.687Z,102248.47
2022-08-07T20:15:52.220Z,102252.19
2022-08-07T20:18:32.780Z,102257.66
2022-08-07T20:21:02.164Z,102260.53
2022-08-07T20:23:41.069Z,102258.97
2022-08-07T20:26:10.842Z,102260.06
2022-08-07T20:28:40.029Z,102266.44
2022-08-07T20:31:21.892Z,102265.72
2022-08-07T20:33:56.463Z,102267.53
2022-08-07T20:36:26.553Z,102267.59
2022-08-07T20:39:00.810Z,102258.97
2022-08-07T20:41:41.045Z,102260.84
2022-08-07T20:44:12.465Z,102267.38
2022-08-07T20:46:44.278Z,102263.94
2022-08-07T20:49:57.799Z,102265.50
2022-08-07T20:52:09.360Z,102258.63
2022-08-07T20:54:53.292Z,102265.69
2022-08-07T20:57:24.877Z,102261.75
2022-08-07T21:00:06.971Z,102267.72
2022-08-07T21:03:00.613Z,102259.59
2022-08-07T21:05:51.517Z,102261.00
2022-08-07T21:08:39.227Z,102254.63
2022-08-07T21:11:14.459Z,102254.19
2022-08-07T21:14:16.057Z,102263.78
2022-08-07T21:16:56.286Z,102261.72
2022-08-07T21:19:51.390Z,102258.63
2022-08-07T21:22:25.590Z,102259.75
2022-08-07T21:25:12.140Z,102257.31
2022-08-07T21:27:47.450Z,102268.91
2022-08-07T21:30:17.783Z,102266.44
2022-08-07T21:33:11.611Z,102264.88
2022-08-07T21:36:06.034Z,102267.56
2022-08-07T21:39:46.507Z,102270.38
2022-08-07T21:42:37.459Z,102269.66
2022-08-07T21:45:01.348Z,102276.03
2022-08-07T21:48:29.092Z,102267.41
2022-08-07T21:51:19.465Z,102265.81
2022-08-07T21:53:54.008Z,102270.34
2022-08-07T21:56:57.967Z,102271.53
2022-08-07T22:00:04.603Z,102277.00
2022-08-07T22:02:44.853Z,102275.38
2022-08-07T22:05:45.352Z,102279.13
2022-08-07T22:08:12.279Z,102273.84
2022-08-07T22:10:42.414Z,102284.69
2022-08-07T22:13:14.057Z,102283.03
2022-08-07T22:16:42.597Z,102277.94
2022-08-07T22:18:52.656Z,102277.19
2022-08-07T22:21:26.093Z,102280.78
2022-08-07T22:24:17.581Z,102274.75
2022-08-07T22:26:56.559Z,102270.47
2022-08-07T22:29:33.992Z,102275.00
2022-08-07T22:32:20.724Z,102274.22
2022-08-07T22:34:54.149Z,102275.22
2022-08-07T22:38:04.571Z,102277.97
2022-08-07T22:40:54.887Z,102272.88
2022-08-07T22:43:39.152Z,102275.72
2022-08-07T22:47:02.620Z,102277.63
2022-08-07T22:49:51.797Z,102279.53
2022-08-07T22:52:39.628Z,102276.94
2022-08-07T22:55:34.162Z,102287.72
2022-08-07T22:58:33.786Z,102281.69
2022-08-07T23:01:49.877Z,102287.16
2022-08-07T23:04:58.090Z,102282.88
2022-08-07T23:08:24.364Z,102292.69
2022-08-07T23:11:10.275Z,102292.81
2022-08-07T23:14:10.878Z,102303.47
2022-08-07T23:17:03.243Z,102295.78
2022-08-07T23:20:14.746Z,102294.16
2022-08-07T23:23:01.659Z,102296.00
2022-08-07T23:25:37.516Z,102296.00
2022-08-07T23:28:31.105Z,102294.44
2022-08-07T23:32:48.642Z,102296.34
2022-08-07T23:35:07.370Z,102296.50
2022-08-07T23:38:10.881Z,102299.22
2022-08-07T23:40:52.974Z,102297.56
2022-08-07T23:43:57.341Z,102291.56
2022-08-07T23:47:03.667Z,102309.31
2022-08-07T23:49:50.530Z,102300.44
2022-08-07T23:53:06.777Z,102291.78
2022-08-07T23:55:52.271Z,102297.22
2022-08-07T23:58:55.048Z,102298.13
